createdAt,value
2018-09-11T00:02:27.269Z,85.03
2018-09-11T00:04:56.592Z,85.17
2018-09-11T00:07:25.824Z,84.87
2018-09-11T00:09:55.016Z,84.81
2018-09-11T00:12:24.135Z,84.70
2018-09-11T00:14:53.383Z,84.32
2018-09-11T00:17:22.614Z,83.68
2018-09-11T00:19:51.919Z,81.93
2018-09-11T00:22:21.060Z,82.17
2018-09-11T00:24:50.232Z,81.86
2018-09-11T00:27:19.428Z,81.20
2018-09-11T00:29:48.614Z,81.33
2018-09-11T00:32:17.838Z,80.56
2018-09-11T00:34:47.085Z,80.01
2018-09-11T00:37:16.312Z,78.96
2018-09-11T00:39:45.454Z,78.48
2018-09-11T00:42:14.639Z,77.95
2018-09-11T00:44:43.904Z,78.81
2018-09-11T00:47:13.039Z,77.82
2018-09-11T00:49:42.223Z,77.83
2018-09-11T00:52:11.467Z,77.35
2018-09-11T00:54:40.647Z,77.09
2018-09-11T00:57:09.785Z,76.68
2018-09-11T00:59:38.963Z,77.15
2018-09-11T01:02:14.434Z,77.27
2018-09-11T01:04:43.579Z,77.12
2018-09-11T01:07:12.712Z,76.84
2018-09-11T01:09:41.943Z,77.15
2018-09-11T01:12:11.195Z,77.36
2018-09-11T01:14:40.462Z,77.81
2018-09-11T01:17:09.775Z,77.00
2018-09-11T01:19:39.027Z,77.26
2018-09-11T01:22:08.351Z,77.15
2018-09-11T01:24:37.542Z,76.82
2018-09-11T01:27:06.670Z,76.22
2018-09-11T01:29:35.801Z,75.59
2018-09-11T01:32:04.934Z,75.80
2018-09-11T01:34:36.899Z,76.01
2018-09-11T01:37:06.085Z,75.59
2018-09-11T01:39:35.206Z,75.40
2018-09-11T01:42:04.422Z,75.70
2018-09-11T01:44:33.683Z,75.90
2018-09-11T01:47:02.842Z,75.22
2018-09-11T01:49:32.063Z,75.59
2018-09-11T01:52:01.171Z,75.68
2018-09-11T01:54:30.323Z,76.29
2018-09-11T01:56:59.512Z,76.10
2018-09-11T01:59:28.646Z,77.41
2018-09-11T02:01:57.798Z,77.56
2018-09-11T02:04:26.969Z,76.69
2018-09-11T02:06:56.104Z,76.00
2018-09-11T02:09:25.326Z,76.67
2018-09-11T02:11:54.579Z,75.72
2018-09-11T02:14:23.695Z,75.27
2018-09-11T02:16:52.894Z,76.47
2018-09-11T02:19:22.103Z,76.28
2018-09-11T02:21:51.346Z,77.06
2018-09-11T02:24:20.563Z,77.14
2018-09-11T02:26:49.698Z,77.81
2018-09-11T02:29:18.807Z,78.86
2018-09-11T02:31:47.967Z,78.80
2018-09-11T02:34:17.125Z,78.35
2018-09-11T02:36:46.300Z,79.02
2018-09-11T02:39:15.559Z,79.13
2018-09-11T02:41:44.720Z,79.02
2018-09-11T02:44:13.962Z,79.62
2018-09-11T02:46:43.186Z,79.67
2018-09-11T02:49:12.322Z,80.02
2018-09-11T02:51:41.542Z,80.11
2018-09-11T02:54:10.714Z,80.46
2018-09-11T02:56:39.959Z,80.38
2018-09-11T02:59:09.063Z,80.99
2018-09-11T03:01:38.291Z,80.93
2018-09-11T03:04:07.439Z,80.86
2018-09-11T03:06:36.638Z,81.46
2018-09-11T03:09:06.759Z,80.96
2018-09-11T03:11:36.130Z,81.65
2018-09-11T03:14:05.283Z,81.70
2018-09-11T03:16:34.576Z,81.48
2018-09-11T03:19:03.711Z,81.33
2018-09-11T03:21:32.907Z,80.58
2018-09-11T03:24:02.072Z,80.74
2018-09-11T03:26:31.822Z,81.00
2018-09-11T03:29:01.079Z,80.30
2018-09-11T03:31:30.192Z,80.37
2018-09-11T03:33:59.419Z,79.62
2018-09-11T03:36:28.577Z,79.70
2018-09-11T03:38:57.791Z,80.04
2018-09-11T03:41:26.976Z,80.39
2018-09-11T03:43:56.084Z,80.13
2018-09-11T03:46:25.190Z,80.36
2018-09-11T03:48:54.387Z,79.81
2018-09-11T03:51:23.572Z,80.15
2018-09-11T03:53:52.676Z,79.98
2018-09-11T03:56:21.908Z,79.34
2018-09-11T03:58:51.163Z,79.54
2018-09-11T04:01:20.491Z,80.01
2018-09-11T04:03:49.739Z,79.87
2018-09-11T04:06:18.927Z,80.21
2018-09-11T04:08:48.064Z,79.71
2018-09-11T04:11:17.225Z,79.66
2018-09-11T04:13:46.472Z,79.58
2018-09-11T04:16:15.676Z,79.38
2018-09-11T04:18:44.904Z,79.26
2018-09-11T04:21:14.062Z,79.25
2018-09-11T04:23:43.215Z,79.19
2018-09-11T04:26:12.388Z,80.01
2018-09-11T04:28:41.627Z,79.73
2018-09-11T04:31:10.793Z,79.33
2018-09-11T04:33:40.015Z,79.01
2018-09-11T04:36:09.150Z,79.09
2018-09-11T04:38:38.268Z,79.16
2018-09-11T04:41:07.478Z,79.43
2018-09-11T04:43:36.587Z,78.41
2018-09-11T04:46:05.845Z,79.07
2018-09-11T04:48:35.046Z,79.10
2018-09-11T04:51:04.141Z,79.13
2018-09-11T04:53:33.339Z,78.41
2018-09-11T04:56:02.466Z,78.78
2018-09-11T04:58:31.738Z,78.38
2018-09-11T05:01:01.174Z,78.34
2018-09-11T05:03:30.427Z,78.90
2018-09-11T05:05:59.691Z,78.52
2018-09-11T05:08:28.892Z,78.61
2018-09-11T05:10:58.145Z,79.27
2018-09-11T05:13:27.648Z,78.89
2018-09-11T05:15:56.782Z,77.94
2018-09-11T05:18:25.949Z,78.37
2018-09-11T05:20:55.055Z,78.03
2018-09-11T05:23:24.176Z,78.47
2018-09-11T05:25:53.342Z,78.47
2018-09-11T05:28:22.537Z,77.79
2018-09-11T05:30:51.906Z,78.05
2018-09-11T05:33:21.082Z,77.63
2018-09-11T05:35:50.209Z,78.34
2018-09-11T05:38:19.359Z,78.04
2018-09-11T05:40:48.525Z,78.38
2018-09-11T05:43:17.640Z,78.36
2018-09-11T05:45:46.742Z,78.00
2018-09-11T05:48:15.996Z,77.80
2018-09-11T05:50:45.119Z,78.29
2018-09-11T05:53:14.379Z,78.72
2018-09-11T05:55:43.599Z,79.23
2018-09-11T05:58:12.841Z,78.28
2018-09-11T06:00:42.043Z,78.34
2018-09-11T06:03:11.287Z,78.21
2018-09-11T06:05:40.592Z,78.33
2018-09-11T06:08:09.727Z,78.16
2018-09-11T06:10:38.902Z,78.17
2018-09-11T06:13:08.222Z,78.90
2018-09-11T06:15:37.422Z,78.30
2018-09-11T06:18:06.863Z,77.92
2018-09-11T06:20:36.091Z,77.86
2018-09-11T06:23:05.573Z,77.59
2018-09-11T06:25:34.842Z,76.92
2018-09-11T06:28:04.195Z,75.99
2018-09-11T06:30:33.394Z,74.15
2018-09-11T06:33:02.607Z,73.75
2018-09-11T06:35:31.890Z,73.87
2018-09-11T06:38:01.066Z,73.54
2018-09-11T06:40:30.295Z,73.48
2018-09-11T06:42:59.533Z,72.91
2018-09-11T06:45:28.713Z,71.06
2018-09-11T06:47:57.967Z,70.85
2018-09-11T06:50:27.142Z,69.22
2018-09-11T06:52:56.327Z,68.22
2018-09-11T06:55:25.491Z,68.60
2018-09-11T06:57:54.689Z,68.04
2018-09-11T07:00:23.970Z,67.33
2018-09-11T07:02:53.166Z,66.21
2018-09-11T07:05:22.425Z,65.27
2018-09-11T07:07:51.626Z,65.82
2018-09-11T07:10:20.763Z,67.67
2018-09-11T07:12:49.983Z,67.23
2018-09-11T07:15:20.794Z,67.04
2018-09-11T07:17:50.019Z,66.72
2018-09-11T07:20:19.596Z,65.99
2018-09-11T07:22:48.580Z,67.88
2018-09-11T07:25:17.861Z,67.21
2018-09-11T07:27:47.079Z,67.94
2018-09-11T07:30:18.374Z,68.32
2018-09-11T07:32:47.534Z,68.73
2018-09-11T07:35:20.574Z,68.20
2018-09-11T07:37:49.738Z,68.18
2018-09-11T07:40:18.942Z,69.17
2018-09-11T07:42:48.195Z,69.64
2018-09-11T07:45:19.072Z,68.81
2018-09-11T07:47:48.340Z,68.40
2018-09-11T07:50:17.488Z,67.32
2018-09-11T07:52:46.657Z,64.87
2018-09-11T07:55:15.932Z,63.24
2018-09-11T07:57:45.213Z,61.07
2018-09-11T08:00:14.795Z,60.41
2018-09-11T08:02:43.959Z,60.78
2018-09-11T08:05:13.134Z,58.86
2018-09-11T08:07:42.296Z,57.18
2018-09-11T08:10:11.495Z,57.55
2018-09-11T08:12:40.631Z,55.22
2018-09-11T08:15:10.500Z,55.26
2018-09-11T08:17:39.698Z,54.30
2018-09-11T08:20:08.884Z,54.31
2018-09-11T08:22:38.040Z,55.02
2018-09-11T08:25:07.201Z,54.25
2018-09-11T08:27:36.440Z,54.96
2018-09-11T08:30:06.151Z,53.62
2018-09-11T08:32:35.338Z,51.99
2018-09-11T08:35:04.857Z,51.73
2018-09-11T08:37:35.016Z,51.27
2018-09-11T08:40:04.190Z,52.47
2018-09-11T08:42:33.481Z,53.34
2018-09-11T08:45:02.671Z,52.57
2018-09-11T08:47:31.796Z,51.61
2018-09-11T08:50:01.122Z,49.79
2018-09-11T08:52:30.442Z,50.95
2018-09-11T08:54:59.658Z,49.92
2018-09-11T08:57:28.856Z,48.69
2018-09-11T08:59:58.035Z,51.06
2018-09-11T09:02:27.159Z,49.53
2018-09-11T09:04:56.312Z,49.25
2018-09-11T09:07:25.527Z,48.22
2018-09-11T09:09:55.760Z,47.47
2018-09-11T09:12:24.959Z,48.73
2018-09-11T09:14:54.077Z,47.87
2018-09-11T09:17:23.198Z,49.09
2018-09-11T09:19:52.359Z,48.94
2018-09-11T09:22:21.587Z,48.87
2018-09-11T09:24:50.889Z,49.79
2018-09-11T09:27:20.046Z,49.06
2018-09-11T09:29:49.185Z,48.56
2018-09-11T09:32:18.343Z,46.52
2018-09-11T09:34:47.687Z,45.11
2018-09-11T09:37:16.888Z,45.33
2018-09-11T09:39:46.024Z,46.34
2018-09-11T09:42:15.158Z,45.30
2018-09-11T09:44:44.324Z,44.13
2018-09-11T09:47:13.478Z,44.85
2018-09-11T09:49:42.777Z,44.58
2018-09-11T09:52:11.983Z,44.73
2018-09-11T09:54:41.292Z,45.23
2018-09-11T09:57:10.566Z,44.28
2018-09-11T09:59:39.765Z,45.29
2018-09-11T10:02:14.205Z,46.22
2018-09-11T10:04:43.414Z,45.83
2018-09-11T10:07:12.547Z,45.54
2018-09-11T10:09:41.686Z,46.17
2018-09-11T10:12:11.953Z,46.69
2018-09-11T10:14:41.136Z,46.57
2018-09-11T10:17:10.964Z,46.28
2018-09-11T10:19:40.402Z,44.99
2018-09-11T10:22:09.592Z,43.98
2018-09-11T10:24:38.746Z,42.98
2018-09-11T10:27:08.295Z,43.64
2018-09-11T10:29:37.534Z,43.83
2018-09-11T10:32:06.748Z,44.66
2018-09-11T10:34:35.940Z,43.58
2018-09-11T10:37:05.064Z,41.80
2018-09-11T10:39:34.300Z,43.15
2018-09-11T10:42:03.541Z,41.93
2018-09-11T10:44:32.674Z,42.49
2018-09-11T10:47:01.842Z,41.99
2018-09-11T10:49:31.192Z,42.44
2018-09-11T10:52:00.340Z,40.82
2018-09-11T10:54:29.469Z,39.44
2018-09-11T10:56:58.940Z,41.09
2018-09-11T10:59:28.119Z,41.18
2018-09-11T11:01:57.251Z,40.75
2018-09-11T11:04:26.538Z,41.32
2018-09-11T11:06:55.716Z,40.72
2018-09-11T11:09:24.865Z,39.02
2018-09-11T11:11:54.020Z,40.27
2018-09-11T11:14:23.230Z,40.56
2018-09-11T11:16:52.488Z,40.55
2018-09-11T11:19:21.569Z,38.94
2018-09-11T11:21:50.930Z,39.39
2018-09-11T11:24:20.080Z,38.95
2018-09-11T11:26:49.282Z,37.96
2018-09-11T11:29:18.499Z,38.73
2018-09-11T11:31:47.654Z,38.45
2018-09-11T11:34:16.810Z,37.60
2018-09-11T11:36:46.076Z,37.99
2018-09-11T11:39:15.175Z,37.00
2018-09-11T11:41:44.353Z,38.56
2018-09-11T11:44:13.415Z,38.42
2018-09-11T11:46:42.631Z,37.22
2018-09-11T11:49:11.727Z,38.73
2018-09-11T11:51:41.071Z,38.51
2018-09-11T11:54:10.246Z,36.32
2018-09-11T11:56:39.479Z,36.01
2018-09-11T11:59:08.656Z,35.69
2018-09-11T12:01:37.918Z,36.15
2018-09-11T12:04:07.228Z,36.28
2018-09-11T12:06:36.434Z,36.91
2018-09-11T12:09:09.027Z,38.54
2018-09-11T12:11:38.229Z,38.07
2018-09-11T12:14:07.357Z,37.37
2018-09-11T12:16:36.522Z,38.34
2018-09-11T12:19:05.769Z,38.06
2018-09-11T12:21:34.934Z,38.15
2018-09-11T12:24:04.080Z,38.36
2018-09-11T12:26:33.295Z,37.75
2018-09-11T12:29:02.927Z,36.87
2018-09-11T12:31:32.090Z,37.72
2018-09-11T12:34:01.355Z,36.22
2018-09-11T12:36:30.589Z,37.49
2018-09-11T12:38:59.755Z,37.12
2018-09-11T12:41:28.922Z,37.33
2018-09-11T12:43:58.061Z,36.73
2018-09-11T12:46:27.626Z,37.69
2018-09-11T12:48:57.254Z,37.80
2018-09-11T12:51:26.419Z,38.82
2018-09-11T12:53:55.596Z,38.24
2018-09-11T12:56:24.741Z,37.16
2018-09-11T12:58:54.099Z,37.74
2018-09-11T13:01:23.239Z,37.85
2018-09-11T13:03:52.402Z,38.15
2018-09-11T13:06:21.702Z,37.03
2018-09-11T13:08:50.832Z,36.33
2018-09-11T13:11:19.975Z,36.52
2018-09-11T13:13:49.151Z,36.37
2018-09-11T13:16:18.285Z,36.81
2018-09-11T13:18:47.515Z,36.04
2018-09-11T13:21:16.726Z,35.75
2018-09-11T13:23:45.854Z,36.77
2018-09-11T13:26:15.035Z,38.53
2018-09-11T13:28:44.283Z,37.18
2018-09-11T13:31:13.522Z,37.31
2018-09-11T13:33:42.736Z,37.65
2018-09-11T13:36:11.827Z,36.20
2018-09-11T13:38:40.957Z,36.49
2018-09-11T13:41:10.180Z,37.09
2018-09-11T13:43:40.259Z,34.71
2018-09-11T13:46:09.471Z,34.71
2018-09-11T13:48:38.636Z,34.35
2018-09-11T13:51:07.778Z,34.57
2018-09-11T13:53:36.890Z,35.25
2018-09-11T13:56:06.232Z,34.89
2018-09-11T13:58:35.325Z,35.20
2018-09-11T14:01:04.589Z,35.42
2018-09-11T14:03:33.712Z,35.33
2018-09-11T14:06:02.883Z,35.15
2018-09-11T14:08:32.170Z,34.83
2018-09-11T14:11:01.283Z,35.05
2018-09-11T14:13:30.569Z,34.61
2018-09-11T14:15:59.739Z,34.64
2018-09-11T14:18:28.869Z,34.73
2018-09-11T14:20:58.031Z,34.92
2018-09-11T14:23:27.247Z,34.15
2018-09-11T14:25:56.408Z,34.63
2018-09-11T14:28:25.676Z,34.28
2018-09-11T14:30:54.787Z,34.95
2018-09-11T14:33:24.141Z,34.65
2018-09-11T14:35:53.306Z,34.28
2018-09-11T14:38:22.471Z,34.90
2018-09-11T14:40:51.769Z,34.52
2018-09-11T14:43:20.915Z,35.38
2018-09-11T14:45:50.273Z,34.65
2018-09-11T14:48:19.541Z,35.20
2018-09-11T14:50:48.756Z,34.87
2018-09-11T14:53:18.003Z,35.54
2018-09-11T14:55:47.179Z,35.66
2018-09-11T14:58:16.452Z,35.61
2018-09-11T15:00:45.660Z,35.27
2018-09-11T15:03:14.833Z,35.70
2018-09-11T15:05:43.973Z,35.18
2018-09-11T15:08:13.172Z,34.93
2018-09-11T15:10:42.370Z,36.20
2018-09-11T15:13:11.670Z,35.57
2018-09-11T15:15:40.868Z,36.10
2018-09-11T15:18:10.067Z,36.22
2018-09-11T15:20:39.294Z,35.83
2018-09-11T15:23:08.463Z,36.60
2018-09-11T15:25:37.748Z,36.52
2018-09-11T15:28:06.879Z,35.21
2018-09-11T15:30:36.208Z,36.04
2018-09-11T15:33:05.578Z,36.17
2018-09-11T15:35:34.775Z,36.25
2018-09-11T15:38:04.035Z,36.30
2018-09-11T15:40:33.277Z,36.82
2018-09-11T15:43:02.658Z,37.16
2018-09-11T15:45:31.873Z,37.24
2018-09-11T15:48:01.055Z,36.83
2018-09-11T15:50:30.211Z,37.61
2018-09-11T15:52:59.469Z,37.70
2018-09-11T15:55:28.591Z,36.24
2018-09-11T15:57:57.817Z,35.66
2018-09-11T16:00:27.093Z,36.63
2018-09-11T16:02:56.369Z,36.67
2018-09-11T16:05:25.706Z,36.09
2018-09-11T16:07:54.859Z,37.10
2018-09-11T16:10:24.635Z,37.72
2018-09-11T16:12:53.846Z,37.64
2018-09-11T16:15:23.519Z,37.70
2018-09-11T16:17:52.856Z,38.59
2018-09-11T16:20:22.110Z,38.63
2018-09-11T16:22:51.400Z,39.07
2018-09-11T16:25:20.677Z,37.88
2018-09-11T16:27:49.911Z,38.30
2018-09-11T16:30:19.800Z,37.17
2018-09-11T16:32:49.084Z,37.34
2018-09-11T16:35:18.294Z,37.81
2018-09-11T16:37:47.719Z,37.73
2018-09-11T16:40:16.887Z,38.46
2018-09-11T16:42:46.491Z,38.69
2018-09-11T16:45:16.470Z,38.30
2018-09-11T16:47:46.298Z,39.09
2018-09-11T16:50:15.938Z,38.42
2018-09-11T16:52:47.025Z,38.57
2018-09-11T16:55:17.314Z,39.70
2018-09-11T16:57:46.489Z,39.31
2018-09-11T17:00:16.104Z,40.00
2018-09-11T17:02:45.275Z,39.53
2018-09-11T17:05:14.514Z,39.42
2018-09-11T17:07:43.663Z,39.82
2018-09-11T17:10:12.891Z,39.99
2018-09-11T17:12:42.087Z,41.21
2018-09-11T17:15:11.940Z,41.68
2018-09-11T17:17:41.066Z,41.51
2018-09-11T17:20:10.400Z,41.56
2018-09-11T17:22:39.511Z,40.64
2018-09-11T17:25:08.857Z,40.88
2018-09-11T17:27:37.991Z,41.54
2018-09-11T17:30:08.029Z,41.63
2018-09-11T17:32:37.312Z,41.65
2018-09-11T17:35:06.547Z,42.69
2018-09-11T17:37:35.734Z,42.07
2018-09-11T17:40:04.939Z,43.15
2018-09-11T17:42:34.116Z,42.81
2018-09-11T17:45:03.444Z,41.87
2018-09-11T17:47:32.792Z,41.47
2018-09-11T17:50:01.998Z,41.59
2018-09-11T17:52:31.335Z,41.90
2018-09-11T17:55:00.672Z,42.24
2018-09-11T17:57:29.868Z,42.64
2018-09-11T17:59:59.755Z,42.66
2018-09-11T18:02:29.747Z,41.91
2018-09-11T18:04:58.923Z,42.20
2018-09-11T18:07:28.240Z,43.03
2018-09-11T18:09:57.526Z,43.32
2018-09-11T18:12:26.811Z,43.68
2018-09-11T18:14:56.078Z,43.72
2018-09-11T18:17:25.314Z,43.21
2018-09-11T18:19:54.579Z,44.00
2018-09-11T18:22:23.815Z,44.55
2018-09-11T18:24:52.987Z,44.04
2018-09-11T18:27:22.146Z,44.01
2018-09-11T18:29:51.514Z,44.59
2018-09-11T18:32:20.678Z,44.89
2018-09-11T18:34:49.976Z,44.58
2018-09-11T18:37:19.374Z,45.36
2018-09-11T18:39:48.551Z,44.82
2018-09-11T18:42:17.693Z,45.49
2018-09-11T18:44:46.854Z,45.55
2018-09-11T18:47:15.995Z,45.97
2018-09-11T18:49:45.231Z,46.49
2018-09-11T18:52:14.360Z,46.33
2018-09-11T18:54:43.524Z,46.21
2018-09-11T18:57:12.871Z,46.13
2018-09-11T18:59:42.119Z,46.26
2018-09-11T19:02:11.265Z,46.45
2018-09-11T19:04:40.520Z,47.17
2018-09-11T19:07:09.700Z,47.70
2018-09-11T19:09:38.872Z,47.45
2018-09-11T19:12:08.153Z,47.57
2018-09-11T19:14:37.508Z,48.55
2018-09-11T19:17:06.654Z,48.19
2018-09-11T19:19:35.863Z,48.59
2018-09-11T19:22:05.092Z,48.61
2018-09-11T19:24:34.267Z,49.68
2018-09-11T19:27:03.586Z,49.25
2018-09-11T19:29:32.878Z,49.65
2018-09-11T19:32:02.089Z,50.22
2018-09-11T19:34:32.216Z,50.52
2018-09-11T19:37:01.476Z,51.58
2018-09-11T19:39:30.764Z,51.72
2018-09-11T19:42:00.109Z,51.83
2018-09-11T19:44:29.354Z,51.90
2018-09-11T19:46:58.604Z,53.21
2018-09-11T19:49:27.840Z,52.66
2018-09-11T19:51:57.073Z,52.82
2018-09-11T19:54:26.367Z,53.08
2018-09-11T19:56:55.604Z,52.36
2018-09-11T19:59:24.860Z,53.27
2018-09-11T20:01:54.160Z,53.56
2018-09-11T20:04:23.357Z,53.30
2018-09-11T20:06:52.643Z,53.52
2018-09-11T20:09:21.820Z,54.28
2018-09-11T20:11:51.036Z,53.40
2018-09-11T20:14:20.311Z,54.25
2018-09-11T20:16:49.550Z,54.87
2018-09-11T20:19:18.886Z,54.68
2018-09-11T20:21:48.161Z,54.24
2018-09-11T20:24:17.605Z,53.90
2018-09-11T20:26:46.821Z,54.66
2018-09-11T20:29:16.042Z,54.27
2018-09-11T20:31:45.197Z,55.02
2018-09-11T20:34:14.407Z,55.37
2018-09-11T20:36:43.595Z,56.00
2018-09-11T20:39:13.299Z,56.02
2018-09-11T20:41:42.550Z,55.90
2018-09-11T20:44:11.924Z,56.99
2018-09-11T20:46:41.094Z,57.46
2018-09-11T20:49:10.431Z,57.56
2018-09-11T20:51:39.664Z,57.40
2018-09-11T20:54:08.834Z,57.29
2018-09-11T20:56:38.036Z,57.16
2018-09-11T20:59:07.244Z,58.72
2018-09-11T21:01:36.451Z,58.44
2018-09-11T21:04:05.740Z,58.23
2018-09-11T21:06:34.878Z,58.61
2018-09-11T21:09:04.911Z,58.81
2018-09-11T21:11:34.135Z,59.53
2018-09-11T21:14:03.266Z,58.58
2018-09-11T21:16:32.494Z,58.15
2018-09-11T21:19:01.765Z,59.51
2018-09-11T21:21:30.891Z,59.03
2018-09-11T21:24:00.449Z,58.82
2018-09-11T21:26:29.591Z,58.60
2018-09-11T21:28:58.812Z,58.81
2018-09-11T21:31:28.000Z,59.96
2018-09-11T21:33:57.165Z,59.41
2018-09-11T21:36:26.280Z,59.07
2018-09-11T21:38:55.481Z,59.62
2018-09-11T21:41:24.994Z,58.54
2018-09-11T21:43:54.178Z,59.23
2018-09-11T21:46:23.506Z,60.55
2018-09-11T21:48:52.603Z,59.74
2018-09-11T21:51:21.796Z,60.90
2018-09-11T21:53:50.974Z,61.48
2018-09-11T21:56:20.162Z,60.19
2018-09-11T21:58:49.301Z,60.25
2018-09-11T22:01:23.887Z,60.57
2018-09-11T22:03:53.187Z,61.48
2018-09-11T22:06:22.270Z,60.83
2018-09-11T22:08:51.415Z,61.09
2018-09-11T22:11:20.546Z,62.82
2018-09-11T22:13:49.744Z,62.58
2018-09-11T22:16:18.915Z,62.38
2018-09-11T22:18:48.074Z,62.78
2018-09-11T22:21:17.167Z,64.06
2018-09-11T22:23:46.312Z,63.91
2018-09-11T22:26:15.451Z,63.70
2018-09-11T22:28:44.576Z,64.47
2018-09-11T22:31:13.719Z,64.46
2018-09-11T22:33:42.907Z,65.54
2018-09-11T22:36:12.058Z,65.03
2018-09-11T22:38:41.256Z,66.10
2018-09-11T22:41:10.414Z,65.41
2018-09-11T22:43:39.620Z,65.59
2018-09-11T22:46:08.775Z,66.03
2018-09-11T22:48:38.058Z,66.02
2018-09-11T22:51:07.379Z,66.18
2018-09-11T22:53:36.846Z,66.85
2018-09-11T22:56:05.999Z,66.27
2018-09-11T22:58:35.190Z,66.87
2018-09-11T23:01:04.428Z,67.11
2018-09-11T23:03:33.591Z,66.82
2018-09-11T23:06:02.857Z,67.66
2018-09-11T23:08:31.976Z,66.74
2018-09-11T23:11:01.152Z,67.22
2018-09-11T23:13:30.453Z,66.13
2018-09-11T23:15:59.656Z,66.38
2018-09-11T23:18:28.984Z,67.04
2018-09-11T23:20:58.096Z,66.69
2018-09-11T23:23:27.258Z,67.16
2018-09-11T23:25:56.456Z,66.67
2018-09-11T23:28:25.758Z,67.01
2018-09-11T23:30:54.935Z,67.40
2018-09-11T23:33:24.066Z,67.76
2018-09-11T23:35:53.251Z,66.29
2018-09-11T23:38:22.453Z,66.23
2018-09-11T23:40:51.579Z,65.21
2018-09-11T23:43:20.727Z,65.28
2018-09-11T23:45:49.878Z,64.19
2018-09-11T23:48:19.135Z,64.56
2018-09-11T23:50:48.345Z,64.93
2018-09-11T23:53:17.519Z,65.29
2018-09-11T23:55:46.647Z,64.09
2018-09-11T23:58:15.746Z,64.64
